2019/06/26 07:50 EDDH 260750Z 28009KT CAVOK 27/19 Q1019 NOSIG